バンダラナイケ国際空港の過去48時間の天気

バンダラナイケ国際空港 (Katunayake)

現在時刻: 1/19 14:52 +0530 (1/19 09:22 UTC) 以下の時間は現地時間です。

過去48時間のMETAR気象情報
時間 風向 風速(m/s) 視程 気温(℃) 湿度(%) 気圧(hPa) 天気現象
19 13:40 北北東 4 9000m 30 52 1011
19 12:40 3 9000m 29 58 1013
19 11:40 東北東 4 9000m 28 58 1014
19 10:40 北東 6 9000m 27 62 1014
19 09:40 北東 6 10km以上 26 70 1015
19 08:40 北北東 4 8000m 22 83 1014
19 07:40 北北東 3 7000m 21 88 1014
19 06:40 北北東 2 7000m 20 88 1012
19 05:40 北東 2 9000m 20 94 1012
19 04:40 北東 3 9000m 21 88 1011
19 03:40 北北東 4 9000m 21 88 1011
19 02:40 北北東 4 9000m 22 83 1011
19 01:40 北東 4 9000m 22 83 1012
19 00:40 北東 4 9000m 23 73 1013
18 23:40 北東 5 9000m 24 69 1013
18 22:40 北東 5 9000m 24 69 1013
18 21:40 北東 5 9000m 25 65 1013
18 20:40 北北東 4 9000m 25 69 1012
18 19:40 北北東 3 7000m 26 65 1011
18 18:40 北北東 3 7000m 27 58 1010
18 17:40 2 8000m 29 52 1009
18 16:40 北北東 5 10km以上 30 52 1009
18 15:40 北北東 5 10km以上 30 49 1009
18 14:40 北北東 5 10km以上 31 49 1009
18 13:40 北東 5 10km以上 30 52 1010
18 12:40 北東 5 10km以上 29 58 1011
18 11:40 北北東 6 10km以上 29 58 1012
18 10:40 北北東 7 10km以上 28 66 1013
18 09:40 北東 6 7000m 27 70 1013
18 08:40 北東 6 4000m 25 78 1012 もや
18 06:40 北北東 4 3500m 22 88 1011 もや
18 05:40 北北東 4 6000m 22 88 1010
18 04:40 北北東 4 6000m 22 83 1010
18 03:40 北北東 4 7000m 23 78 1010
18 02:40 北北東 5 8000m 23 78 1010
18 01:40 北北東 5 9000m 24 74 1011
18 00:40 北北東 5 9000m 24 69 1011
17 23:40 北東 6 9000m 24 74 1012
17 22:40 北東 6 8000m 25 74 1012
17 21:40 北北東 6 9000m 25 74 1012
17 20:40 北北東 5 9000m 26 70 1011
17 19:40 北北東 5 9000m 27 62 1011
17 18:40 北北東 4 8000m 28 58 1009
17 17:40 北北東 5 9000m 30 52 1009
17 16:40 北北東 6 10km以上 31 46 1008
17 15:40 北北東 6 10km以上 31 40 1008
VCBI 190810Z 02008KT 340V090 9000 FEW018 30/19 Q1011 NOSIG
VCBI 190710Z 01006KT 320V070 9000 NSC 29/20 Q1013 NOSIG
VCBI 190610Z 06008KT 010V110 9000 NSC 28/19 Q1014 NOSIG
VCBI 190510Z 04011KT 9000 NSC 27/19 Q1014 NOSIG
VCBI 190410Z 04011KT 350V060 CAVOK 26/20 Q1015 NOSIG
VCBI 190310Z 03007KT 8000 NSC 22/19 Q1014 NOSIG
VCBI 190210Z 03006KT 7000 NSC 21/19 Q1014 NOSIG
VCBI 190110Z 02004KT 7000 NSC 20/18 Q1012 NOSIG
VCBI 190010Z 04004KT 9000 NSC 20/19 Q1012 NOSIG
VCBI 182310Z 04006KT 9000 NSC 21/19 Q1011 NOSIG
VCBI 182210Z 03007KT 9000 NSC 21/19 Q1011 NOSIG
VCBI 182110Z 03008KT 9000 NSC 22/19 Q1011 NOSIG
VCBI 182010Z 04008KT 9000 NSC 22/19 Q1012 NOSIG
VCBI 181910Z 04008KT 9000 NSC 23/18 Q1013 NOSIG
VCBI 181810Z 04009KT 9000 NSC 24/18 Q1013 NOSIG
VCBI 181710Z 04010KT 9000 NSC 24/18 Q1013 NOSIG
VCBI 181610Z 04010KT 9000 NSC 25/18 Q1013 NOSIG
VCBI 181510Z 03008KT 9000 NSC 25/19 Q1012 NOSIG
VCBI 181410Z 02005KT 7000 NSC 26/19 Q1011 NOSIG
VCBI 181310Z 03005KT 7000 NSC 27/18 Q1010 NOSIG
VCBI 181210Z 36004KT 320V030 8000 NSC 29/18 Q1009 NOSIG
VCBI 181110Z 03009KT 9999 FEW018 30/19 Q1009 NOSIG
VCBI 181010Z 02010KT 350V050 9999 FEW018 30/18 Q1009 NOSIG
VCBI 180910Z 03010KT 360V070 9999 FEW018 31/19 Q1009 NOSIG
VCBI 180810Z 04009KT 360V080 9999 FEW018 30/19 Q1010 NOSIG
VCBI 180710Z 04009KT 9999 FEW018 29/20 Q1011 NOSIG
VCBI 180610Z 02011KT 350V070 9999 FEW018 29/20 Q1012 NOSIG
VCBI 180510Z 03013KT 360V080 9999 FEW018 28/21 Q1013 NOSIG
VCBI 180410Z 05012KT 7000 SCT020 27/21 Q1013 NOSIG
VCBI 180310Z 04011KT 4000 BR NSC 25/21 Q1012 BECMG 5000
VCBI 180110Z 03008KT 3500 BR NSC 22/20 Q1011 TEMPO 4000
VCBI 180010Z 03008KT 6000 NSC 22/20 Q1010 NOSIG
VCBI 172310Z 03008KT 6000 NSC 22/19 Q1010 NOSIG
VCBI 172210Z 03008KT 7000 NSC 23/19 Q1010 NOSIG
VCBI 172110Z 03009KT 8000 NSC 23/19 Q1010 NOSIG
VCBI 172010Z 03009KT 9000 NSC 24/19 Q1011 NOSIG
VCBI 171910Z 03010KT 9000 SKC 24/18 Q1011 NOSIG
VCBI 171810Z 04011KT 9000 NSC 24/19 Q1012 NOSIG
VCBI 171710Z 04011KT 8000 NSC 25/20 Q1012 NOSIG
VCBI 171610Z 03011KT 9000 NSC 25/20 Q1012 NOSIG
VCBI 171510Z 03010KT 9000 NSC 26/20 Q1011 NOSIG
VCBI 171410Z 02009KT 9000 NSC 27/19 Q1011 NOSIG
VCBI 171310Z 02008KT 8000 NSC 28/19 Q1009 NOSIG
VCBI 171210Z 02010KT 9000 NSC 30/19 Q1009 NOSIG
VCBI 171110Z 03011KT CAVOK 31/18 Q1008 NOSIG
VCBI 171010Z 03011KT 360V070 9999 FEW020 31/16 Q1008 NOSIG